Time;durP1;ratioP1;P1;durP2;ratioP2;P2;SDS_P1;SDS_P2;PMS_P1;PMS_P2;Temp;Humidity;BMP_temperature;BMP_pressure;BME280_temperature;BME280_humidity;BME280_pressure;Samples;Min_cycle;Max_cycle;Signal;HPM_P1;HPM_P2
2023/01/23 00:00:33;;;;;;;8.30;4.77;;;1.00;99.90;;;1.56;100.00;99477.50;5038437;28;20467;-80
2023/01/23 00:03:02;;;;;;;4.87;3.97;;;1.00;99.90;;;1.59;100.00;99482.47;5036183;28;21037;-80
2023/01/23 00:05:32;;;;;;;5.70;4.60;;;1.00;99.90;;;1.62;100.00;99482.28;5036896;28;20468;-80
2023/01/23 00:08:03;;;;;;;4.73;4.27;;;1.10;99.90;;;1.60;100.00;99479.78;5032893;28;20503;-80
2023/01/23 00:10:32;;;;;;;6.30;3.97;;;1.10;99.90;;;1.60;100.00;99487.50;5035418;28;20462;-80
2023/01/23 00:13:00;;;;;;;7.33;4.60;;;1.10;99.90;;;1.63;100.00;99494.25;5036557;28;20519;-79
2023/01/23 00:15:31;;;;;;;5.07;3.70;;;1.10;99.90;;;1.62;100.00;99483.13;5033447;28;20957;-80
2023/01/23 00:18:01;;;;;;;6.07;4.37;;;1.10;99.90;;;1.64;100.00;99485.56;5035376;28;20465;-80
2023/01/23 00:20:31;;;;;;;7.63;4.53;;;1.00;99.90;;;1.65;100.00;99487.25;5036756;28;21156;-79
2023/01/23 00:23:02;;;;;;;6.63;4.50;;;1.00;99.90;;;1.62;100.00;99487.44;5035728;28;20492;-80
2023/01/23 00:25:30;;;;;;;5.90;4.50;;;1.00;99.90;;;1.62;100.00;99487.44;5031817;28;20494;-80
2023/01/23 00:28:01;;;;;;;5.77;4.63;;;1.00;99.90;;;1.64;100.00;99485.56;5033830;28;20899;-80
2023/01/23 00:30:30;;;;;;;6.90;4.20;;;1.00;99.90;;;1.66;100.00;99494.06;5028898;28;21363;-80
2023/01/23 00:32:58;;;;;;;4.47;3.90;;;1.10;99.90;;;1.65;100.00;99488.06;5034298;28;20579;-79
2023/01/23 00:35:27;;;;;;;4.77;3.50;;;1.10;99.90;;;1.66;100.00;99488.91;5031941;28;20461;-80
2023/01/23 00:37:57;;;;;;;6.00;4.60;;;1.10;99.90;;;1.67;100.00;99486.22;5031360;28;20529;-80
2023/01/23 00:40:29;;;;;;;5.70;4.10;;;1.20;99.90;;;1.66;100.00;99478.59;5032733;28;20939;-80
2023/01/23 00:43:00;;;;;;;5.43;4.10;;;1.20;99.90;;;1.67;100.00;99480.22;5030539;28;20527;-80
2023/01/23 00:45:30;;;;;;;5.60;4.37;;;1.10;99.90;;;1.67;100.00;99486.22;5032001;28;20559;-80
2023/01/23 00:48:01;;;;;;;5.43;4.10;;;1.10;99.90;;;1.64;100.00;99485.56;5037663;28;20561;-80
2023/01/23 00:50:31;;;;;;;5.33;4.20;;;1.10;99.90;;;1.64;100.00;99480.41;5036655;28;20465;-80
2023/01/23 00:53:01;;;;;;;4.70;4.20;;;1.10;99.90;;;1.65;100.00;99489.81;5036601;28;20469;-80
2023/01/23 00:55:32;;;;;;;5.70;4.27;;;1.10;99.90;;;1.66;100.00;99489.75;5035378;28;20466;-80
2023/01/23 00:58:02;;;;;;;6.33;5.23;;;1.20;99.90;;;1.61;100.00;99496.91;5035949;28;20488;-80
2023/01/23 01:00:32;;;;;;;6.33;4.50;;;1.20;99.90;;;1.64;100.00;99490.72;5036175;28;20471;-80
2023/01/23 01:03:02;;;;;;;5.70;4.33;;;1.10;99.90;;;1.62;100.00;99497.75;5035734;28;20469;-79
2023/01/23 01:05:31;;;;;;;5.90;4.40;;;1.20;99.90;;;1.60;100.00;99500.41;5036974;28;20986;-79
2023/01/23 01:08:01;;;;;;;5.17;3.93;;;1.00;99.90;;;1.64;100.00;99498.47;5037981;28;20484;-80
2023/01/23 01:10:33;;;;;;;8.00;5.10;;;1.10;99.90;;;1.62;100.00;99502.91;5038228;28;20469;-80
2023/01/23 01:13:04;;;;;;;4.67;3.57;;;1.10;99.90;;;1.62;100.00;99500.31;5037777;28;20473;-79
2023/01/23 01:15:33;;;;;;;5.47;4.37;;;1.10;99.90;;;1.62;100.00;99505.47;5036097;28;20504;-80
2023/01/23 01:18:02;;;;;;;5.03;4.53;;;1.10;99.90;;;1.64;100.00;99506.19;5037031;28;20579;-80
2023/01/23 01:20:32;;;;;;;5.47;4.50;;;1.10;99.90;;;1.61;100.00;99502.06;5035211;28;20495;-79
2023/01/23 01:23:03;;;;;;;5.60;3.80;;;1.10;99.90;;;1.61;100.00;99506.38;5036871;28;20501;-80
2023/01/23 01:25:35;;;;;;;7.47;4.70;;;1.10;99.90;;;1.62;100.00;99500.31;5039775;28;20846;-80
2023/01/23 01:28:05;;;;;;;5.47;4.40;;;1.10;99.90;;;1.64;100.00;99509.59;5041284;28;21085;-79
2023/01/23 01:30:36;;;;;;;6.73;4.80;;;1.20;99.90;;;1.64;100.00;99507.03;5039521;28;20688;-80
2023/01/23 01:33:07;;;;;;;7.20;4.33;;;1.10;99.90;;;1.64;100.00;99506.19;5040414;28;20544;-80
2023/01/23 01:35:39;;;;;;;6.73;4.50;;;1.10;99.90;;;1.66;100.00;99500.06;5039630;28;20462;-80
2023/01/23 01:38:10;;;;;;;8.67;5.30;;;1.10;99.90;;;1.62;100.00;99503.72;5039991;28;20473;-79
2023/01/23 01:40:41;;;;;;;4.90;4.20;;;1.10;99.90;;;1.64;100.00;99511.34;5036499;28;20475;-79
2023/01/23 01:43:20;;;;;;;4.73;3.90;;;1.10;99.90;;;1.64;100.00;99507.03;5039773;28;20478;-80
2023/01/23 01:46:42;;;;;;;5.00;3.63;;;1.20;99.90;;;1.65;100.00;99508.69;5039436;28;20470;-80
2023/01/23 01:49:17;;;;;;;7.33;3.90;;;1.10;99.90;;;1.64;100.00;99501.88;5037286;28;20498;-80
2023/01/23 01:51:54;;;;;;;4.93;4.10;;;1.10;99.90;;;1.65;100.00;99502.72;5038539;28;20560;-79
2023/01/23 01:54:29;;;;;;;6.17;4.43;;;1.10;99.90;;;1.62;100.00;99501.16;5038346;28;20465;-79
2023/01/23 01:57:08;;;;;;;5.57;4.07;;;1.00;99.90;;;1.65;100.00;99507.88;5036409;28;20463;-80
2023/01/23 01:59:43;;;;;;;4.87;4.37;;;1.10;99.90;;;1.65;100.00;99513.03;5037877;28;20864;-80
2023/01/23 02:02:16;;;;;;;7.20;4.30;;;1.10;99.90;;;1.68;100.00;99510.25;5037949;28;20471;-80
2023/01/23 02:04:52;;;;;;;6.50;4.50;;;1.10;99.90;;;1.66;100.00;99519.84;5037048;28;20468;-79
2023/01/23 02:07:27;;;;;;;5.07;4.57;;;1.20;99.90;;;1.67;100.00;99522.31;5038564;28;20514;-79
2023/01/23 02:09:58;;;;;;;5.30;4.20;;;1.20;99.90;;;1.67;100.00;99513.75;5038054;28;20523;-79
2023/01/23 02:12:30;;;;;;;6.40;4.67;;;1.10;99.90;;;1.64;100.00;99516.50;5037668;28;20568;-80
2023/01/23 02:15:00;;;;;;;4.63;4.07;;;1.20;99.90;;;1.66;100.00;99509.53;5038904;28;20453;-79
2023/01/23 02:17:31;;;;;;;5.27;4.17;;;1.20;99.90;;;1.66;100.00;99509.53;5037093;28;21087;-80
2023/01/23 02:20:13;;;;;;;7.13;5.20;;;1.20;99.90;;;1.68;100.00;99515.41;5035495;28;20470;-79
2023/01/23 02:23:00;;;;;;;9.23;5.63;;;1.10;99.90;;;1.68;100.00;99511.06;5037415;28;20491;-80
2023/01/23 02:25:41;;;;;;;7.07;4.43;;;1.20;99.90;;;1.70;100.00;99511.00;5036983;28;20494;-80
2023/01/23 02:28:14;;;;;;;6.27;5.23;;;1.20;99.90;;;1.71;100.00;99512.63;5034959;28;21127;-79
2023/01/23 02:30:45;;;;;;;6.50;4.23;;;1.20;99.90;;;1.67;100.00;99512.00;5036681;28;20469;-79
2023/01/23 02:33:57;;;;;;;4.77;3.87;;;1.10;99.90;;;1.66;100.00;99520.66;5033598;28;20462;-80
2023/01/23 02:36:29;;;;;;;6.97;4.10;;;1.10;99.90;;;1.65;100.00;99518.19;4995912;28;20634;-80
2023/01/23 02:39:08;;;;;;;5.90;4.57;;;1.10;99.90;;;1.65;100.00;99524.16;5036453;28;20515;-80
2023/01/23 02:41:41;;;;;;;6.10;3.83;;;1.10;99.90;;;1.67;100.00;99529.22;5036313;28;21026;-79
2023/01/23 02:44:17;;;;;;;6.40;5.20;;;1.20;99.90;;;1.66;100.00;99522.41;5032250;28;20558;-80
2023/01/23 02:46:47;;;;;;;5.30;4.00;;;1.10;99.90;;;1.65;100.00;99528.47;5035455;28;20495;-80
2023/01/23 02:49:17;;;;;;;5.67;4.47;;;1.20;99.90;;;1.65;100.00;99537.06;5035386;28;21600;-79
2023/01/23 02:51:47;;;;;;;6.23;4.80;;;1.20;99.90;;;1.65;100.00;99538.78;5034438;28;21067;-79
2023/01/23 02:54:18;;;;;;;5.40;4.53;;;1.10;99.90;;;1.64;100.00;99542.28;5034464;28;20470;-80
2023/01/23 02:56:48;;;;;;;5.10;3.90;;;1.10;99.90;;;1.65;100.00;99546.53;5035712;28;20457;-80
2023/01/23 03:02:16;;;;;;;6.33;4.13;;;1.10;99.90;;;1.66;100.00;99553.34;4999422;28;21270;-79
2023/01/23 03:04:47;;;;;;;7.67;4.17;;;1.10;99.90;;;1.68;100.00;99548.91;5037973;28;20545;-79
2023/01/23 03:07:16;;;;;;;4.67;3.50;;;1.10;99.90;;;1.67;100.00;99555.81;5033882;28;20463;-79
2023/01/23 03:09:48;;;;;;;6.83;4.67;;;1.10;99.90;;;1.71;100.00;99553.88;5034377;28;20524;-79
2023/01/23 03:12:19;;;;;;;5.50;4.20;;;1.10;99.90;;;1.68;100.00;99549.75;5036091;28;20471;-79
2023/01/23 03:14:53;;;;;;;5.83;4.23;;;1.20;99.90;;;1.68;100.00;99543.75;5034192;28;20497;-79
2023/01/23 03:17:23;;;;;;;5.37;4.20;;;1.10;99.90;;;1.68;100.00;99554.06;5033431;28;20470;-79
2023/01/23 03:19:54;;;;;;;7.60;4.60;;;1.20;99.90;;;1.65;100.00;99544.78;5034202;28;20492;-80
2023/01/23 03:22:25;;;;;;;7.20;4.10;;;1.10;99.90;;;1.67;100.00;99554.97;5034991;28;20972;-79
2023/01/23 03:24:56;;;;;;;5.77;4.37;;;1.10;99.90;;;1.69;100.00;99558.31;5033810;28;20471;-79
2023/01/23 03:27:27;;;;;;;6.47;4.37;;;1.20;99.90;;;1.69;100.00;99555.75;5034739;28;20829;-80
2023/01/23 03:32:42;;;;;;;5.00;3.93;;;1.20;99.90;;;1.70;100.00;99557.41;5032316;28;20479;-79
2023/01/23 03:35:15;;;;;;;8.10;4.00;;;1.20;99.90;;;1.72;100.00;99555.53;5034290;28;20469;-80
2023/01/23 03:37:46;;;;;;;5.83;4.07;;;1.20;99.90;;;1.71;100.00;99559.88;5033080;28;20468;-74
2023/01/23 03:43:05;;;;;;;33.77;16.20;;;1.10;99.90;;;1.72;100.00;99558.13;5035805;28;20568;-79
2023/01/23 03:45:36;;;;;;;6.57;3.70;;;1.10;99.90;;;1.72;100.00;99550.38;5032082;28;20465;-79
2023/01/23 03:48:06;;;;;;;6.27;4.37;;;1.10;99.90;;;1.72;100.00;99551.22;5034783;28;20471;-80
2023/01/23 03:50:36;;;;;;;8.80;4.20;;;1.10;99.90;;;1.74;100.00;99545.94;5034803;28;20469;-79
2023/01/23 03:53:06;;;;;;;6.17;4.17;;;1.10;99.90;;;1.73;100.00;99546.91;5033224;28;20497;-75
2023/01/23 03:55:35;;;;;;;9.40;5.67;;;1.10;99.90;;;1.73;100.00;99550.31;5034036;28;20507;-79
2023/01/23 03:58:06;;;;;;;9.17;4.90;;;1.10;99.90;;;1.73;100.00;99550.31;5037343;28;20967;-79
2023/01/23 04:00:38;;;;;;;6.73;4.50;;;1.20;99.90;;;1.72;100.00;99548.63;5035931;28;20473;-79
2023/01/23 04:03:07;;;;;;;6.90;4.33;;;1.20;99.90;;;1.70;100.00;99539.34;5035845;28;20473;-79
2023/01/23 04:05:37;;;;;;;6.63;4.23;;;1.20;99.90;;;1.67;100.00;99544.66;5038245;28;20473;-79
2023/01/23 04:08:08;;;;;;;4.50;3.73;;;1.10;99.90;;;1.70;100.00;99549.66;5036638;28;20478;-79
2023/01/23 04:10:38;;;;;;;6.47;4.47;;;1.10;99.90;;;1.72;100.00;99545.22;5034600;28;20557;-74
2023/01/23 04:13:09;;;;;;;7.07;5.27;;;1.20;99.90;;;1.69;100.00;99555.75;5033088;28;20472;-80
2023/01/23 04:15:40;;;;;;;6.17;3.90;;;1.10;99.90;;;1.71;100.00;99544.41;5033861;28;20465;-78
2023/01/23 04:18:09;;;;;;;4.67;3.73;;;1.10;99.90;;;1.72;100.00;99555.53;5035501;28;20508;-79
2023/01/23 04:20:39;;;;;;;7.73;4.30;;;1.10;99.90;;;1.71;100.00;99553.88;5037153;28;20475;-79
2023/01/23 04:23:09;;;;;;;5.13;3.73;;;1.10;99.90;;;1.72;100.00;99561.53;5041368;28;20468;-78
2023/01/23 04:25:40;;;;;;;5.97;3.80;;;1.20;99.90;;;1.73;100.00;99552.06;5040523;28;20462;-78
2023/01/23 04:28:10;;;;;;;5.20;4.00;;;1.20;99.90;;;1.72;100.00;99553.78;5040169;28;20493;-78
2023/01/23 04:30:41;;;;;;;5.63;4.03;;;1.20;99.90;;;1.73;100.00;99557.22;5038649;28;20485;-78
2023/01/23 04:33:11;;;;;;;5.83;4.20;;;1.10;99.90;;;1.74;100.00;99556.25;5039077;28;20468;-79
2023/01/23 04:35:41;;;;;;;6.23;4.53;;;1.10;99.90;;;1.73;100.00;99557.22;5037239;28;20466;-79
2023/01/23 04:38:11;;;;;;;5.70;3.70;;;1.20;99.90;;;1.72;100.00;99560.69;5036951;28;20458;-77
2023/01/23 04:40:42;;;;;;;4.70;4.10;;;1.20;99.90;;;1.71;100.00;99561.63;5037755;28;20556;-78
2023/01/23 04:43:11;;;;;;;8.90;5.70;;;1.20;99.90;;;1.70;100.00;99562.56;5037512;28;20505;-80
2023/01/23 04:45:42;;;;;;;7.80;4.00;;;1.20;99.90;;;1.68;100.00;99554.06;5035662;28;20545;-78
2023/01/23 04:48:13;;;;;;;3.77;3.37;;;1.20;99.90;;;1.66;100.00;99553.34;5037628;28;20979;-78
2023/01/23 04:50:41;;;;;;;7.10;4.47;;;1.10;99.90;;;1.67;100.00;99554.97;5037989;28;20545;-78
2023/01/23 04:53:12;;;;;;;8.63;4.47;;;1.20;99.90;;;1.64;100.00;99547.44;5036861;28;20546;-78
2023/01/23 04:55:42;;;;;;;6.20;4.30;;;1.10;99.90;;;1.64;100.00;99555.19;5038700;28;21062;-78
2023/01/23 04:58:12;;;;;;;4.90;3.80;;;1.10;99.90;;;1.60;100.00;99551.16;5036617;28;20990;-78
2023/01/23 05:00:43;;;;;;;4.40;3.80;;;1.10;99.90;;;1.60;100.00;99556.31;5036837;28;20519;-73
2023/01/23 05:03:13;;;;;;;5.40;4.23;;;1.20;99.90;;;1.58;100.00;99552.97;5038943;28;20871;-77
2023/01/23 05:05:43;;;;;;;6.53;4.53;;;1.20;99.90;;;1.58;100.00;99556.38;5040788;28;20995;-78
2023/01/23 05:08:15;;;;;;;6.90;4.70;;;1.10;99.90;;;1.60;100.00;99551.16;5040553;28;20950;-78
2023/01/23 05:10:49;;;;;;;4.10;3.60;;;1.10;99.90;;;1.60;100.00;99551.16;5041621;28;20505;-79
2023/01/23 05:13:19;;;;;;;4.03;3.60;;;1.10;99.90;;;1.60;100.00;99551.16;5039332;28;20971;-78
2023/01/23 05:15:52;;;;;;;8.10;4.60;;;1.10;99.90;;;1.61;100.00;99545.06;5038400;28;20499;-79
2023/01/23 05:18:22;;;;;;;7.20;4.70;;;1.10;99.90;;;1.61;100.00;99547.63;5040733;28;20457;-78
2023/01/23 05:20:52;;;;;;;4.83;3.93;;;1.10;99.90;;;1.63;100.00;99548.38;5039140;28;20894;-78
2023/01/23 05:23:22;;;;;;;5.40;4.23;;;1.10;99.90;;;1.62;100.00;99546.72;5038062;28;20461;-78
2023/01/23 05:25:51;;;;;;;6.50;5.07;;;1.10;99.90;;;1.61;100.00;99552.78;5039030;28;20555;-77
2023/01/23 05:28:21;;;;;;;7.93;4.50;;;1.10;99.90;;;1.62;100.00;99549.31;5035798;28;20481;-78
2023/01/23 05:30:51;;;;;;;5.00;3.90;;;1.10;99.90;;;1.60;100.00;99557.13;5034687;28;20595;-78
2023/01/23 05:33:21;;;;;;;5.60;3.47;;;1.10;99.90;;;1.58;100.00;99552.97;5031876;28;21226;-78
2023/01/23 05:35:51;;;;;;;4.90;3.83;;;1.10;99.90;;;1.59;100.00;99562.38;5037104;28;21170;-78
2023/01/23 05:38:20;;;;;;;6.13;4.40;;;1.10;99.90;;;1.57;100.00;99570.19;5035951;28;20523;-78
2023/01/23 05:40:51;;;;;;;4.77;3.67;;;1.10;99.90;;;1.57;100.00;99572.75;5034817;28;20973;-78
2023/01/23 05:43:20;;;;;;;6.90;4.20;;;1.20;99.90;;;1.57;100.00;99577.09;5036686;28;20469;-78
2023/01/23 05:45:50;;;;;;;4.23;3.77;;;1.10;99.90;;;1.60;100.00;99582.88;5036245;28;20478;-78
2023/01/23 05:48:20;;;;;;;5.70;4.10;;;1.00;99.90;;;1.57;100.00;99592.56;5035125;28;21060;-78
2023/01/23 05:50:50;;;;;;;12.80;6.60;;;1.00;99.90;;;1.57;100.00;99587.41;5037283;28;21226;-74
2023/01/23 05:53:20;;;;;;;7.30;5.30;;;1.00;99.90;;;1.57;100.00;99597.72;5035267;28;20471;-78
2023/01/23 05:55:50;;;;;;;15.33;5.07;;;1.00;99.90;;;1.57;100.00;99603.69;5034296;28;20479;-78
2023/01/23 05:58:19;;;;;;;7.60;5.17;;;1.00;99.90;;;1.59;100.00;99601.88;5039336;28;20898;-80
2023/01/23 06:00:51;;;;;;;6.37;4.33;;;1.00;99.90;;;1.56;100.00;99594.34;5039306;28;20459;-80
2023/01/23 06:03:22;;;;;;;7.07;4.90;;;1.10;99.90;;;1.53;100.00;99597.06;5040087;28;20471;-80
2023/01/23 06:05:52;;;;;;;7.90;4.80;;;1.10;99.90;;;1.55;100.00;99607.28;5038912;28;20828;-81
2023/01/23 06:08:22;;;;;;;5.17;4.40;;;1.00;99.90;;;1.53;100.00;99603.06;5041324;28;20806;-80
2023/01/23 06:10:52;;;;;;;7.30;5.00;;;1.10;99.90;;;1.56;100.00;99594.34;5038748;28;20485;-80
2023/01/23 06:13:23;;;;;;;13.50;5.03;;;1.00;99.90;;;1.55;100.00;99605.56;5039369;28;20668;-80
2023/01/23 06:15:53;;;;;;;6.20;4.07;;;1.00;99.90;;;1.52;100.00;99601.41;5038895;28;20548;-81
2023/01/23 06:18:22;;;;;;;6.30;4.50;;;1.10;99.90;;;1.52;100.00;99604.00;5040704;28;20463;-80
2023/01/23 06:20:58;;;;;;;6.33;4.07;;;1.10;99.90;;;1.53;100.00;99597.91;5039625;28;20515;-80
2023/01/23 06:23:27;;;;;;;7.73;4.80;;;1.10;99.90;;;1.49;100.00;99601.56;5040004;28;20466;-80
2023/01/23 06:26:01;;;;;;;7.10;4.20;;;1.00;99.90;;;1.49;100.00;99601.56;5040633;28;20461;-80
2023/01/23 06:28:31;;;;;;;6.73;4.27;;;1.00;99.90;;;1.49;100.00;99611.88;5038938;28;20901;-80
2023/01/23 06:31:07;;;;;;;6.80;4.20;;;0.90;99.90;;;1.49;100.00;99605.94;5040072;28;20504;-80
2023/01/23 06:33:37;;;;;;;6.43;4.60;;;0.90;99.90;;;1.45;100.00;99610.44;5040093;28;20463;-80
2023/01/23 06:36:09;;;;;;;6.33;4.33;;;0.90;99.90;;;1.41;100.00;99616.69;5041927;28;20461;-80
2023/01/23 06:38:38;;;;;;;4.63;4.10;;;0.80;99.90;;;1.40;100.00;99620.16;5041066;28;21038;-80
2023/01/23 06:41:10;;;;;;;4.40;3.50;;;0.80;99.90;;;1.42;100.00;99615.75;5041571;28;20979;-80
2023/01/23 06:43:41;;;;;;;5.70;3.83;;;0.90;99.90;;;1.46;100.00;99609.50;5039602;28;20583;-80
2023/01/23 06:46:12;;;;;;;6.27;4.30;;;1.00;99.90;;;1.47;100.00;99611.16;5041909;28;21011;-80
2023/01/23 06:48:44;;;;;;;7.57;4.47;;;0.90;99.90;;;1.47;100.00;99613.72;5040634;28;20797;-80
2023/01/23 06:51:15;;;;;;;6.10;3.93;;;1.00;99.90;;;1.47;100.00;99621.47;5040636;28;20499;-80
2023/01/23 06:53:44;;;;;;;5.20;3.43;;;0.90;99.90;;;1.47;100.00;99615.47;5039027;28;20812;-80
2023/01/23 06:56:13;;;;;;;7.87;4.30;;;0.90;99.90;;;1.48;100.00;99620.56;5040049;28;20466;-80
2023/01/23 06:58:47;;;;;;;6.43;3.80;;;1.00;99.90;;;1.49;100.00;99629.13;5039566;28;20816;-80
2023/01/23 07:01:18;;;;;;;7.23;4.43;;;1.00;99.90;;;1.47;100.00;99621.47;5039875;28;20462;-80
2023/01/23 07:03:48;;;;;;;4.53;3.80;;;1.00;99.90;;;1.45;100.00;99620.75;5039551;28;20473;-81
2023/01/23 07:06:18;;;;;;;4.60;3.30;;;0.90;99.90;;;1.49;100.00;99627.34;5038536;28;21007;-80
2023/01/23 07:08:48;;;;;;;5.20;3.30;;;0.90;99.90;;;1.48;100.00;99625.72;5039200;28;21000;-80
2023/01/23 07:11:18;;;;;;;3.97;3.13;;;1.00;99.90;;;1.47;100.00;99629.19;5039597;28;20491;-80
2023/01/23 07:13:49;;;;;;;5.33;3.83;;;0.90;99.90;;;1.51;100.00;99632.41;5038022;28;20465;-80
2023/01/23 07:16:20;;;;;;;7.80;3.87;;;0.90;99.90;;;1.47;100.00;99629.19;5037491;28;20465;-80
2023/01/23 07:18:49;;;;;;;4.20;3.33;;;0.90;99.90;;;1.51;100.00;99635.00;5037196;28;20556;-80
2023/01/23 07:21:18;;;;;;;6.40;3.80;;;1.00;99.90;;;1.51;100.00;99643.56;5037887;28;20533;-80
2023/01/23 07:23:49;;;;;;;5.37;3.73;;;1.00;99.90;;;1.44;100.00;99638.84;5036440;28;20473;-80
2023/01/23 07:26:19;;;;;;;3.97;3.00;;;0.90;99.90;;;1.48;100.00;99646.31;5036803;28;20567;-80
2023/01/23 07:28:49;;;;;;;5.40;3.50;;;1.00;99.90;;;1.50;100.00;99647.06;5036471;28;21704;-80
2023/01/23 07:31:20;;;;;;;6.80;3.80;;;0.90;99.90;;;1.53;100.00;99654.59;5036406;28;21029;-80
2023/01/23 07:33:50;;;;;;;5.80;3.30;;;0.90;99.90;;;1.55;100.00;99656.25;5038170;28;21008;-80
2023/01/23 07:36:20;;;;;;;4.70;3.73;;;1.00;99.90;;;1.55;100.00;99656.25;5037618;28;20478;-80
2023/01/23 07:38:51;;;;;;;4.63;2.80;;;1.00;99.90;;;1.56;100.00;99657.94;5038613;28;20490;-81
2023/01/23 07:41:20;;;;;;;3.37;3.00;;;1.00;99.90;;;1.55;100.00;99656.25;5036814;28;20457;-80
2023/01/23 07:43:51;;;;;;;3.70;2.73;;;1.00;99.90;;;1.57;100.00;99660.41;5036806;28;20478;-80
2023/01/23 07:46:24;;;;;;;5.97;3.90;;;1.00;99.90;;;1.62;100.00;99654.97;5036280;28;20972;-80
2023/01/23 07:48:55;;;;;;;4.70;3.03;;;1.00;99.90;;;1.64;100.00;99671.16;5036261;28;20469;-80
2023/01/23 07:51:25;;;;;;;3.80;3.20;;;1.00;99.90;;;1.64;100.00;99666.03;5037018;28;20896;-80
2023/01/23 07:53:54;;;;;;;9.60;3.03;;;1.20;99.90;;;1.67;100.00;99676.16;5037047;28;20463;-80
2023/01/23 07:56:25;;;;;;;5.80;3.33;;;1.20;99.90;;;1.66;100.00;99670.19;5037319;28;20570;-80
2023/01/23 07:58:54;;;;;;;9.50;3.97;;;1.20;99.90;;;1.65;100.00;99678.84;5038630;28;20929;-80
2023/01/23 08:01:27;;;;;;;5.47;3.20;;;1.20;99.90;;;1.68;100.00;99680.38;5038279;28;20485;-80
2023/01/23 08:03:56;;;;;;;4.67;2.50;;;1.20;99.90;;;1.67;100.00;99671.00;5038173;28;20544;-80
2023/01/23 08:06:26;;;;;;;3.53;2.80;;;1.20;99.90;;;1.67;100.00;99671.81;5038948;28;20967;-79
2023/01/23 08:08:56;;;;;;;2.40;2.20;;;1.30;99.90;;;1.71;100.00;99682.78;5039774;28;20585;-80
2023/01/23 08:11:25;;;;;;;4.60;3.37;;;1.20;99.90;;;1.76;100.00;99691.94;5038964;28;21041;-80
2023/01/23 08:13:55;;;;;;;3.20;2.30;;;1.20;99.90;;;1.77;100.00;99692.75;5037388;28;20461;-80
2023/01/23 08:16:27;;;;;;;4.40;3.40;;;1.20;99.90;;;1.78;100.00;99702.13;5038414;28;20493;-80
2023/01/23 08:18:57;;;;;;;4.03;2.80;;;1.20;99.90;;;1.79;100.00;99698.63;5038920;28;20468;-80
2023/01/23 08:21:27;;;;;;;3.77;2.80;;;1.30;99.90;;;1.78;100.00;99699.53;5037275;28;20470;-80
2023/01/23 08:23:56;;;;;;;3.83;3.00;;;1.30;99.90;;;1.80;100.00;99690.00;5036371;28;20536;-80
2023/01/23 08:26:26;;;;;;;3.80;3.10;;;1.40;99.90;;;1.81;100.00;99702.78;5040077;28;20497;-80
2023/01/23 08:28:57;;;;;;;5.37;2.87;;;1.30;99.90;;;1.84;100.00;99701.78;5039438;28;20509;-80
2023/01/23 08:31:28;;;;;;;3.90;2.90;;;1.30;99.90;;;1.83;100.00;99707.84;5037346;28;21080;-80
2023/01/23 08:33:57;;;;;;;4.17;3.20;;;1.30;99.90;;;1.85;100.00;99716.31;5037767;28;20454;-80
2023/01/23 08:36:27;;;;;;;4.47;2.90;;;1.30;99.90;;;1.85;100.00;99709.41;5039274;28;20555;-80
2023/01/23 08:38:57;;;;;;;3.97;3.00;;;1.30;99.90;;;1.86;100.00;99710.25;5036793;28;20496;-80
2023/01/23 08:41:27;;;;;;;3.60;2.50;;;1.40;99.90;;;1.88;100.00;99705.81;5036023;28;20551;-80
2023/01/23 08:44:00;;;;;;;3.47;2.70;;;1.40;99.90;;;1.85;100.00;99714.56;5034641;28;20874;-81
2023/01/23 08:46:31;;;;;;;3.47;3.07;;;1.40;99.90;;;1.87;100.00;99714.50;5037016;28;20532;-80
2023/01/23 08:49:01;;;;;;;3.47;2.63;;;1.40;99.90;;;1.85;100.00;99717.16;5038121;28;20546;-81
2023/01/23 08:51:32;;;;;;;2.80;2.60;;;1.40;99.90;;;1.88;100.00;99716.13;5037295;28;20562;-80
2023/01/23 08:54:01;;;;;;;4.43;2.63;;;1.40;99.90;;;1.90;100.00;99714.31;5039645;28;20461;-80
2023/01/23 08:56:32;;;;;;;6.27;3.37;;;1.40;99.90;;;1.92;100.00;99722.78;5038675;28;20528;-81
2023/01/23 08:59:02;;;;;;;4.70;2.93;;;1.50;99.90;;;1.93;100.00;99714.13;5040393;28;20465;-80
2023/01/23 09:01:32;;;;;;;3.67;3.00;;;1.50;99.90;;;1.91;100.00;99714.19;5038379;28;20832;-80
2023/01/23 09:04:03;;;;;;;2.80;2.60;;;1.50;99.90;;;1.89;100.00;99715.22;5038340;28;20472;-80
2023/01/23 09:06:32;;;;;;;4.30;2.50;;;1.40;99.90;;;1.91;100.00;99715.94;5037782;28;20964;-80
2023/01/23 09:09:03;;;;;;;4.13;2.97;;;1.50;99.90;;;1.91;100.00;99715.94;5040757;28;20492;-80
2023/01/23 09:11:33;;;;;;;4.23;3.47;;;1.50;99.90;;;1.90;100.00;99714.31;5040979;28;20529;-80
2023/01/23 09:14:03;;;;;;;5.30;2.70;;;1.50;99.90;;;1.91;100.00;99713.38;5041130;28;20457;-80
2023/01/23 09:16:33;;;;;;;4.70;3.30;;;1.50;99.90;;;1.94;100.00;99716.59;5041665;28;20573;-80
2023/01/23 09:19:04;;;;;;;3.20;2.80;;;1.50;99.90;;;1.94;100.00;99720.94;5042695;28;20505;-80
2023/01/23 09:21:33;;;;;;;3.93;3.00;;;1.50;99.90;;;1.94;100.00;99716.59;5039742;28;20599;-80
2023/01/23 09:24:05;;;;;;;12.43;3.83;;;1.50;99.90;;;1.95;100.00;99717.41;5038295;28;20460;-80
2023/01/23 09:26:36;;;;;;;4.40;3.40;;;1.50;99.90;;;1.95;100.00;99718.25;5038618;28;20490;-80
2023/01/23 09:29:06;;;;;;;5.33;3.20;;;1.50;99.90;;;1.97;100.00;99719.00;5040281;28;20480;-80
2023/01/23 09:31:38;;;;;;;7.90;3.53;;;1.70;99.90;;;1.98;100.00;99715.50;5041911;28;20493;-80
2023/01/23 09:34:08;;;;;;;3.90;3.37;;;1.60;99.90;;;2.01;100.00;99723.03;5041420;28;20526;-80
2023/01/23 09:36:38;;;;;;;3.50;2.80;;;1.60;99.90;;;2.01;100.00;99717.88;5040505;28;20583;-80
2023/01/23 09:39:12;;;;;;;5.00;3.50;;;1.60;99.90;;;2.06;100.00;99729.69;5040573;28;20462;-80
2023/01/23 09:41:44;;;;;;;3.73;3.37;;;1.60;99.90;;;2.05;100.00;99728.84;5041072;28;20861;-80
2023/01/23 09:44:21;;;;;;;5.23;3.37;;;1.60;99.90;;;2.07;100.00;99732.19;5041766;28;20525;-80
2023/01/23 09:47:01;;;;;;;3.73;2.87;;;1.60;99.90;;;2.09;100.00;99729.50;5043356;28;20468;-80
2023/01/23 09:49:41;;;;;;;5.50;3.70;;;1.60;99.90;;;2.08;100.00;99723.53;5041130;28;20472;-80
2023/01/23 09:52:17;;;;;;;4.07;3.30;;;1.70;99.90;;;2.06;100.00;99735.69;5042295;28;20484;-80
2023/01/23 09:54:52;;;;;;;4.77;3.80;;;1.70;99.90;;;2.11;100.00;99728.50;5040381;28;20943;-80
2023/01/23 09:57:30;;;;;;;3.80;3.20;;;1.70;99.90;;;2.09;100.00;99735.50;5042191;28;20553;-80
2023/01/23 10:00:06;;;;;;;5.30;3.70;;;1.80;99.90;;;2.10;100.00;99733.75;5041730;28;20961;-80
2023/01/23 10:02:36;;;;;;;4.60;3.77;;;1.80;99.90;;;2.11;100.00;99738.81;5040079;28;20489;-80
2023/01/23 10:05:12;;;;;;;5.93;4.10;;;1.70;99.90;;;2.18;100.00;99729.78;5041497;28;20464;-79
2023/01/23 10:08:03;;;;;;;5.00;3.30;;;1.70;99.90;;;2.19;100.00;99730.59;5039062;28;21138;-80
2023/01/23 10:10:53;;;;;;;9.23;3.60;;;1.80;99.90;;;2.23;100.00;99732.91;5038451;28;20567;-80
2023/01/23 10:13:53;;;;;;;4.63;3.30;;;1.70;99.90;;;2.24;100.00;99738.91;5038606;28;20590;-80
2023/01/23 10:17:03;;;;;;;4.30;3.10;;;1.70;99.90;;;2.22;100.00;99736.41;5034160;28;20470;-80
2023/01/23 10:20:03;;;;;;;4.90;3.67;;;1.80;99.90;;;2.27;100.00;99728.38;5036676;28;20475;-80
2023/01/23 10:22:38;;;;;;;4.57;3.40;;;1.80;99.90;;;2.27;100.00;99724.06;5038477;28;20453;-80
2023/01/23 10:25:16;;;;;;;3.63;2.97;;;1.90;99.90;;;2.27;100.00;99729.22;5037774;28;20539;-80
2023/01/23 10:27:49;;;;;;;4.97;3.40;;;1.90;99.90;;;2.26;100.00;99717.22;5037632;28;20539;-80
2023/01/23 10:30:26;;;;;;;3.63;3.20;;;1.90;99.90;;;2.29;100.00;99716.25;5038949;28;20460;-81
2023/01/23 10:33:00;;;;;;;5.07;3.50;;;1.90;99.90;;;2.31;100.00;99717.78;5040259;28;20553;-80
2023/01/23 10:35:39;;;;;;;5.73;3.97;;;1.80;99.90;;;2.31;100.00;99720.38;5039664;28;20464;-80
2023/01/23 10:38:26;;;;;;;6.17;4.10;;;1.80;99.90;;;2.34;100.00;99721.94;5039830;28;20816;-80
2023/01/23 10:41:18;;;;;;;4.47;3.80;;;1.80;99.90;;;2.33;100.00;99715.94;5041349;28;20453;-80
2023/01/23 10:43:53;;;;;;;5.30;3.40;;;1.90;99.90;;;2.33;100.00;99707.34;5039854;28;20873;-80
2023/01/23 10:46:34;;;;;;;5.40;3.83;;;1.80;99.90;;;2.34;100.00;99715.03;5039671;28;20490;-80
2023/01/23 10:49:06;;;;;;;4.83;3.37;;;1.80;99.90;;;2.34;100.00;99719.34;5039901;28;20544;-80
2023/01/23 10:51:47;;;;;;;5.00;2.90;;;1.90;99.90;;;2.32;100.00;99711.72;5041135;28;20539;-80
2023/01/23 10:54:20;;;;;;;5.77;3.40;;;1.90;99.90;;;2.30;100.00;99723.88;5039672;28;20552;-80